sensor_id;sensor_type;location;lat;lon;timestamp;pressure;altitude;pressure_sealevel;temperature;humidity
49723;BME280;43484;43.608;1.458;2024-02-23T00:17:43;98701.50;;;8.10;100.00
49723;BME280;43484;43.608;1.458;2024-02-23T00:20:10;98700.44;;;8.02;100.00
49723;BME280;43484;43.608;1.458;2024-02-23T00:22:38;98691.97;;;8.02;100.00
49723;BME280;43484;43.608;1.458;2024-02-23T00:25:05;98688.53;;;8.01;100.00
49723;BME280;43484;43.608;1.458;2024-02-23T00:35:06;98671.19;;;7.85;100.00
49723;BME280;43484;43.608;1.458;2024-02-23T00:45:01;98669.59;;;7.89;100.00
49723;BME280;43484;43.608;1.458;2024-02-23T00:47:27;98671.94;;;7.80;100.00
49723;BME280;43484;43.608;1.458;2024-02-23T00:49:54;98671.19;;;7.84;100.00
49723;BME280;43484;43.608;1.458;2024-02-23T00:59:49;98672.34;;;7.60;100.00
49723;BME280;43484;43.608;1.458;2024-02-23T01:02:16;98667.44;;;7.68;100.00
49723;BME280;43484;43.608;1.458;2024-02-23T01:12:24;98668.94;;;7.60;100.00
49723;BME280;43484;43.608;1.458;2024-02-23T01:22:18;98674.84;;;7.59;100.00
49723;BME280;43484;43.608;1.458;2024-02-23T01:24:45;98669.09;;;7.68;100.00
49723;BME280;43484;43.608;1.458;2024-02-23T01:38:13;98669.25;;;7.36;100.00
49723;BME280;43484;43.608;1.458;2024-02-23T01:40:45;98676.06;;;7.37;100.00
49723;BME280;43484;43.608;1.458;2024-02-23T01:43:12;98657.22;;;7.31;100.00
49723;BME280;43484;43.608;1.458;2024-02-23T01:45:39;98666.34;;;7.21;100.00
49723;BME280;43484;43.608;1.458;2024-02-23T01:48:06;98654.59;;;7.26;100.00
49723;BME280;43484;43.608;1.458;2024-02-23T01:50:34;98646.31;;;7.36;100.00
49723;BME280;43484;43.608;1.458;2024-02-23T01:53:02;98634.91;;;7.21;100.00
49723;BME280;43484;43.608;1.458;2024-02-23T01:55:29;98626.25;;;7.13;100.00
49723;BME280;43484;43.608;1.458;2024-02-23T01:58:01;98608.75;;;7.26;100.00
49723;BME280;43484;43.608;1.458;2024-02-23T02:00:31;98598.56;;;7.26;100.00
49723;BME280;43484;43.608;1.458;2024-02-23T02:02:58;98596.00;;;7.26;100.00
49723;BME280;43484;43.608;1.458;2024-02-23T02:05:25;98593.53;;;7.29;100.00
49723;BME280;43484;43.608;1.458;2024-02-23T02:07:53;98592.81;;;7.35;100.00
49723;BME280;43484;43.608;1.458;2024-02-23T02:10:25;98588.44;;;7.29;100.00
49723;BME280;43484;43.608;1.458;2024-02-23T02:12:53;98586.19;;;7.43;100.00
49723;BME280;43484;43.608;1.458;2024-02-23T02:15:19;98584.56;;;7.46;100.00
49723;BME280;43484;43.608;1.458;2024-02-23T02:17:48;98583.63;;;7.43;100.00
49723;BME280;43484;43.608;1.458;2024-02-23T02:20:17;98584.41;;;7.40;100.00
49723;BME280;43484;43.608;1.458;2024-02-23T02:22:45;98578.34;;;7.35;100.00
49723;BME280;43484;43.608;1.458;2024-02-23T02:25:14;98582.03;;;7.46;100.00
49723;BME280;43484;43.608;1.458;2024-02-23T02:27:42;98586.91;;;7.37;100.00
49723;BME280;43484;43.608;1.458;2024-02-23T02:30:12;98587.84;;;7.42;100.00
49723;BME280;43484;43.608;1.458;2024-02-23T02:32:39;98596.09;;;7.31;100.00
49723;BME280;43484;43.608;1.458;2024-02-23T02:35:06;98595.38;;;7.36;100.00
49723;BME280;43484;43.608;1.458;2024-02-23T02:37:34;98598.66;;;7.31;100.00
49723;BME280;43484;43.608;1.458;2024-02-23T02:40:01;98594.22;;;7.22;100.00
49723;BME280;43484;43.608;1.458;2024-02-23T02:42:29;98590.94;;;7.28;100.00
49723;BME280;43484;43.608;1.458;2024-02-23T02:44:55;98579.88;;;7.27;100.00
49723;BME280;43484;43.608;1.458;2024-02-23T02:47:22;98574.00;;;7.30;100.00
49723;BME280;43484;43.608;1.458;2024-02-23T02:49:49;98568.91;;;7.30;100.00
49723;BME280;43484;43.608;1.458;2024-02-23T02:52:16;98570.78;;;7.38;100.00
49723;BME280;43484;43.608;1.458;2024-02-23T02:54:42;98581.75;;;7.34;100.00
49723;BME280;43484;43.608;1.458;2024-02-23T02:57:09;98580.78;;;7.29;100.00
49723;BME280;43484;43.608;1.458;2024-02-23T02:59:36;98574.75;;;7.26;100.00
49723;BME280;43484;43.608;1.458;2024-02-23T03:02:03;98572.97;;;7.22;100.00
49723;BME280;43484;43.608;1.458;2024-02-23T03:04:29;98572.13;;;7.21;100.00
49723;BME280;43484;43.608;1.458;2024-02-23T03:06:56;98560.81;;;7.10;100.00
49723;BME280;43484;43.608;1.458;2024-02-23T03:09:22;98562.53;;;7.10;100.00
49723;BME280;43484;43.608;1.458;2024-02-23T03:11:49;98553.31;;;7.15;100.00
49723;BME280;43484;43.608;1.458;2024-02-23T03:14:16;98549.03;;;7.14;100.00
49723;BME280;43484;43.608;1.458;2024-02-23T03:16:44;98558.94;;;7.02;100.00
49723;BME280;43484;43.608;1.458;2024-02-23T03:19:14;98559.13;;;7.11;100.00
49723;BME280;43484;43.608;1.458;2024-02-23T03:21:42;98568.00;;;6.91;100.00
49723;BME280;43484;43.608;1.458;2024-02-23T03:24:08;98574.91;;;6.95;100.00
49723;BME280;43484;43.608;1.458;2024-02-23T03:26:35;98572.19;;;6.89;100.00
49723;BME280;43484;43.608;1.458;2024-02-23T03:29:02;98575.56;;;6.86;100.00
49723;BME280;43484;43.608;1.458;2024-02-23T03:31:28;98578.16;;;6.89;100.00
49723;BME280;43484;43.608;1.458;2024-02-23T03:33:55;98562.78;;;6.85;100.00
49723;BME280;43484;43.608;1.458;2024-02-23T03:36:21;98570.44;;;6.85;100.00
49723;BME280;43484;43.608;1.458;2024-02-23T03:38:48;98557.25;;;7.02;100.00
49723;BME280;43484;43.608;1.458;2024-02-23T03:41:15;98551.91;;;6.92;100.00
49723;BME280;43484;43.608;1.458;2024-02-23T03:43:42;98560.19;;;6.83;100.00
49723;BME280;43484;43.608;1.458;2024-02-23T03:46:09;98555.34;;;6.94;100.00
49723;BME280;43484;43.608;1.458;2024-02-23T03:48:35;98551.91;;;6.92;100.00
49723;BME280;43484;43.608;1.458;2024-02-23T03:51:03;98554.34;;;6.87;100.00
49723;BME280;43484;43.608;1.458;2024-02-23T03:53:31;98554.06;;;6.75;100.00
49723;BME280;43484;43.608;1.458;2024-02-23T03:55:58;98537.16;;;6.77;100.00
49723;BME280;43484;43.608;1.458;2024-02-23T03:58:25;98546.25;;;6.68;100.00
49723;BME280;43484;43.608;1.458;2024-02-23T04:00:52;98539.41;;;6.65;100.00
49723;BME280;43484;43.608;1.458;2024-02-23T04:03:18;98524.91;;;6.61;100.00
49723;BME280;43484;43.608;1.458;2024-02-23T04:05:45;98520.63;;;6.60;100.00
49723;BME280;43484;43.608;1.458;2024-02-23T04:08:12;98512.25;;;6.64;100.00
49723;BME280;43484;43.608;1.458;2024-02-23T04:10:39;98502.09;;;6.66;100.00
49723;BME280;43484;43.608;1.458;2024-02-23T04:13:06;98501.84;;;6.55;100.00
49723;BME280;43484;43.608;1.458;2024-02-23T04:15:32;98490.94;;;6.59;100.00
49723;BME280;43484;43.608;1.458;2024-02-23T04:17:59;98481.75;;;6.66;100.00
49723;BME280;43484;43.608;1.458;2024-02-23T04:20:25;98480.88;;;6.65;100.00
49723;BME280;43484;43.608;1.458;2024-02-23T04:22:52;98478.47;;;6.70;100.00
49723;BME280;43484;43.608;1.458;2024-02-23T04:25:19;98473.44;;;6.73;100.00
49723;BME280;43484;43.608;1.458;2024-02-23T04:27:45;98474.88;;;6.63;100.00
49723;BME280;43484;43.608;1.458;2024-02-23T04:30:12;98486.91;;;6.69;100.00
49723;BME280;43484;43.608;1.458;2024-02-23T04:32:39;98483.44;;;6.65;100.00
49723;BME280;43484;43.608;1.458;2024-02-23T04:35:06;98477.38;;;6.60;100.00
49723;BME280;43484;43.608;1.458;2024-02-23T04:37:33;98478.28;;;6.62;100.00
49723;BME280;43484;43.608;1.458;2024-02-23T04:40:03;98473.25;;;6.65;100.00
49723;BME280;43484;43.608;1.458;2024-02-23T04:42:32;98467.31;;;6.65;100.00
49723;BME280;43484;43.608;1.458;2024-02-23T04:44:59;98469.16;;;6.72;100.00
49723;BME280;43484;43.608;1.458;2024-02-23T04:47:25;98482.34;;;6.56;100.00
49723;BME280;43484;43.608;1.458;2024-02-23T04:49:52;98476.63;;;6.64;100.00
49723;BME280;43484;43.608;1.458;2024-02-23T04:52:19;98467.25;;;6.63;100.00
49723;BME280;43484;43.608;1.458;2024-02-23T04:54:46;98455.59;;;6.71;100.00
49723;BME280;43484;43.608;1.458;2024-02-23T04:57:13;98459.06;;;6.75;100.00
49723;BME280;43484;43.608;1.458;2024-02-23T04:59:39;98455.63;;;6.73;100.00
49723;BME280;43484;43.608;1.458;2024-02-23T05:02:06;98457.34;;;6.75;100.00
49723;BME280;43484;43.608;1.458;2024-02-23T05:04:33;98462.34;;;6.71;100.00
49723;BME280;43484;43.608;1.458;2024-02-23T05:06:59;98465.16;;;6.81;100.00
49723;BME280;43484;43.608;1.458;2024-02-23T05:09:27;98470.72;;;6.67;100.00
49723;BME280;43484;43.608;1.458;2024-02-23T05:11:54;98473.81;;;6.54;100.00
49723;BME280;43484;43.608;1.458;2024-02-23T05:14:21;98476.69;;;6.67;100.00
49723;BME280;43484;43.608;1.458;2024-02-23T05:16:48;98475.91;;;6.70;100.00
49723;BME280;43484;43.608;1.458;2024-02-23T05:19:14;98479.84;;;6.57;100.00
49723;BME280;43484;43.608;1.458;2024-02-23T05:21:41;98474.09;;;6.64;100.00
49723;BME280;43484;43.608;1.458;2024-02-23T05:24:08;98476.56;;;6.61;100.00
49723;BME280;43484;43.608;1.458;2024-02-23T05:26:34;98469.00;;;6.64;100.00
49723;BME280;43484;43.608;1.458;2024-02-23T05:29:01;98469.16;;;6.72;100.00
49723;BME280;43484;43.608;1.458;2024-02-23T05:31:47;98470.72;;;6.67;100.00
49723;BME280;43484;43.608;1.458;2024-02-23T05:34:14;98471.34;;;6.57;100.00
49723;BME280;43484;43.608;1.458;2024-02-23T05:36:42;98478.03;;;6.53;100.00
49723;BME280;43484;43.608;1.458;2024-02-23T05:39:09;98468.13;;;6.64;100.00
49723;BME280;43484;43.608;1.458;2024-02-23T05:41:36;98461.41;;;6.66;100.00
49723;BME280;43484;43.608;1.458;2024-02-23T05:44:04;98461.63;;;6.76;100.00
49723;BME280;43484;43.608;1.458;2024-02-23T05:46:32;98465.00;;;6.75;100.00
49723;BME280;43484;43.608;1.458;2024-02-23T05:48:59;98470.22;;;6.80;100.00
49723;BME280;43484;43.608;1.458;2024-02-23T05:51:28;98478.19;;;6.58;100.00
49723;BME280;43484;43.608;1.458;2024-02-23T05:53:56;98477.69;;;6.74;100.00
49723;BME280;43484;43.608;1.458;2024-02-23T05:56:24;98495.31;;;6.65;100.00
49723;BME280;43484;43.608;1.458;2024-02-23T05:58:51;98495.56;;;6.77;100.00
49723;BME280;43484;43.608;1.458;2024-02-23T06:01:18;98500.06;;;6.88;100.00
49723;BME280;43484;43.608;1.458;2024-02-23T06:03:45;98506.81;;;6.85;100.00
49723;BME280;43484;43.608;1.458;2024-02-23T06:06:12;98511.16;;;6.90;100.00
49723;BME280;43484;43.608;1.458;2024-02-23T06:08:39;98521.34;;;6.92;100.00
49723;BME280;43484;43.608;1.458;2024-02-23T06:11:06;98512.94;;;6.94;100.00
49723;BME280;43484;43.608;1.458;2024-02-23T06:13:33;98524.22;;;7.05;100.00
49723;BME280;43484;43.608;1.458;2024-02-23T06:16:00;98529.28;;;7.04;100.00
49723;BME280;43484;43.608;1.458;2024-02-23T06:18:27;98530.91;;;7.02;100.00
49723;BME280;43484;43.608;1.458;2024-02-23T06:20:53;98530.78;;;6.96;100.00
49723;BME280;43484;43.608;1.458;2024-02-23T06:23:20;98528.34;;;7.00;100.00
49723;BME280;43484;43.608;1.458;2024-02-23T06:25:48;98530.81;;;6.97;100.00
49723;BME280;43484;43.608;1.458;2024-02-23T06:28:15;98536.22;;;7.11;100.00
49723;BME280;43484;43.608;1.458;2024-02-23T06:30:42;98535.28;;;7.07;100.00
49723;BME280;43484;43.608;1.458;2024-02-23T06:33:08;98536.91;;;7.04;100.00
49723;BME280;43484;43.608;1.458;2024-02-23T06:35:35;98530.22;;;7.09;100.00
49723;BME280;43484;43.608;1.458;2024-02-23T06:38:02;98535.50;;;7.16;100.00
49723;BME280;43484;43.608;1.458;2024-02-23T06:40:29;98549.06;;;7.15;100.00
49723;BME280;43484;43.608;1.458;2024-02-23T06:43:11;98537.25;;;7.19;100.00
49723;BME280;43484;43.608;1.458;2024-02-23T06:45:38;98536.69;;;7.32;100.00
49723;BME280;43484;43.608;1.458;2024-02-23T06:48:05;98543.34;;;7.27;100.00
49723;BME280;43484;43.608;1.458;2024-02-23T06:50:32;98542.59;;;7.31;100.00
49723;BME280;43484;43.608;1.458;2024-02-23T06:52:59;98545.84;;;7.24;100.00
49723;BME280;43484;43.608;1.458;2024-02-23T06:55:25;98550.88;;;7.21;100.00
49723;BME280;43484;43.608;1.458;2024-02-23T06:57:52;98544.13;;;7.23;100.00
49723;BME280;43484;43.608;1.458;2024-02-23T07:00:20;98559.47;;;7.26;100.00
49723;BME280;43484;43.608;1.458;2024-02-23T07:02:47;98557.94;;;7.34;100.00
49723;BME280;43484;43.608;1.458;2024-02-23T07:05:14;98575.72;;;7.31;100.00
49723;BME280;43484;43.608;1.458;2024-02-23T07:07:41;98582.28;;;7.20;100.00
49723;BME280;43484;43.608;1.458;2024-02-23T07:10:08;98576.09;;;7.10;100.00
49723;BME280;43484;43.608;1.458;2024-02-23T07:12:35;98557.31;;;7.05;100.00
49723;BME280;43484;43.608;1.458;2024-02-23T07:15:01;98538.41;;;6.94;100.00
49723;BME280;43484;43.608;1.458;2024-02-23T07:17:28;98531.19;;;6.77;100.00
49723;BME280;43484;43.608;1.458;2024-02-23T07:19:55;98519.72;;;6.58;100.00
49723;BME280;43484;43.608;1.458;2024-02-23T07:22:29;98482.72;;;6.71;100.00
49723;BME280;43484;43.608;1.458;2024-02-23T07:24:56;98471.13;;;6.46;100.00
49723;BME280;43484;43.608;1.458;2024-02-23T07:27:22;98460.38;;;6.58;100.00
49723;BME280;43484;43.608;1.458;2024-02-23T07:29:49;98442.59;;;6.59;100.00
49723;BME280;43484;43.608;1.458;2024-02-23T07:32:16;98431.25;;;6.84;100.00
49723;BME280;43484;43.608;1.458;2024-02-23T07:34:43;98436.22;;;6.78;100.00
49723;BME280;43484;43.608;1.458;2024-02-23T07:37:09;98430.31;;;6.80;100.00
49723;BME280;43484;43.608;1.458;2024-02-23T07:39:36;98432.03;;;6.80;100.00
49723;BME280;43484;43.608;1.458;2024-02-23T07:42:03;98421.78;;;6.78;100.00
49723;BME280;43484;43.608;1.458;2024-02-23T07:44:30;98442.28;;;6.46;100.00
49723;BME280;43484;43.608;1.458;2024-02-23T07:46:57;98425.75;;;6.64;100.00
49723;BME280;43484;43.608;1.458;2024-02-23T07:49:25;98424.41;;;6.43;100.00
49723;BME280;43484;43.608;1.458;2024-02-23T07:51:54;98442.19;;;6.41;100.00
49723;BME280;43484;43.608;1.458;2024-02-23T07:54:21;98437.94;;;6.42;100.00
49723;BME280;43484;43.608;1.458;2024-02-23T07:56:47;98436.63;;;6.59;100.00
49723;BME280;43484;43.608;1.458;2024-02-23T07:59:14;98448.44;;;6.57;100.00
49723;BME280;43484;43.608;1.458;2024-02-23T08:01:41;98465.44;;;6.56;100.00
49723;BME280;43484;43.608;1.458;2024-02-23T08:04:07;98455.28;;;6.58;100.00
49723;BME280;43484;43.608;1.458;2024-02-23T08:06:34;98452.31;;;6.77;100.00
49723;BME280;43484;43.608;1.458;2024-02-23T08:09:01;98450.88;;;6.88;100.00
49723;BME280;43484;43.608;1.458;2024-02-23T08:11:29;98477.53;;;6.66;100.00
49723;BME280;43484;43.608;1.458;2024-02-23T08:13:57;98481.19;;;6.79;100.00
49723;BME280;43484;43.608;1.458;2024-02-23T08:16:25;98510.22;;;6.87;100.00
49723;BME280;43484;43.608;1.458;2024-02-23T08:18:52;98516.41;;;6.98;100.00
49723;BME280;43484;43.608;1.458;2024-02-23T08:21:18;98542.19;;;7.11;100.00
49723;BME280;43484;43.608;1.458;2024-02-23T08:23:46;98558.53;;;7.21;100.00
49723;BME280;43484;43.608;1.458;2024-02-23T08:26:13;98582.34;;;7.23;100.00
49723;BME280;43484;43.608;1.458;2024-02-23T08:28:39;98586.06;;;7.38;100.00
49723;BME280;43484;43.608;1.458;2024-02-23T08:31:06;98593.75;;;7.40;100.00
49723;BME280;43484;43.608;1.458;2024-02-23T08:33:33;98609.28;;;7.52;100.00
49723;BME280;43484;43.608;1.458;2024-02-23T08:36:00;98625.03;;;7.33;100.00
49723;BME280;43484;43.608;1.458;2024-02-23T08:38:26;98637.28;;;7.50;100.00
49723;BME280;43484;43.608;1.458;2024-02-23T08:40:53;98652.25;;;7.37;100.00
49723;BME280;43484;43.608;1.458;2024-02-23T08:43:20;98639.03;;;7.51;100.00
49723;BME280;43484;43.608;1.458;2024-02-23T08:45:46;98666.13;;;7.48;100.00
49723;BME280;43484;43.608;1.458;2024-02-23T08:48:13;98668.69;;;7.49;100.00
49723;BME280;43484;43.608;1.458;2024-02-23T08:50:41;98663.13;;;7.67;100.00
49723;BME280;43484;43.608;1.458;2024-02-23T08:53:08;98672.66;;;7.76;100.00
49723;BME280;43484;43.608;1.458;2024-02-23T08:55:35;98675.41;;;7.46;100.00
49723;BME280;43484;43.608;1.458;2024-02-23T08:58:02;98661.75;;;7.42;100.00
49723;BME280;43484;43.608;1.458;2024-02-23T09:00:28;98666.47;;;7.63;100.00
49723;BME280;43484;43.608;1.458;2024-02-23T09:02:55;98664.59;;;7.56;100.00
49723;BME280;43484;43.608;1.458;2024-02-23T09:05:21;98667.41;;;7.67;100.00
49723;BME280;43484;43.608;1.458;2024-02-23T09:07:48;98678.53;;;7.70;100.00
49723;BME280;43484;43.608;1.458;2024-02-23T09:10:15;98660.19;;;7.49;100.00
49723;BME280;43484;43.608;1.458;2024-02-23T09:12:42;98670.75;;;7.65;100.00
49723;BME280;43484;43.608;1.458;2024-02-23T09:15:09;98659.94;;;7.76;100.00
49723;BME280;43484;43.608;1.458;2024-02-23T09:17:35;98665.44;;;7.94;100.00
49723;BME280;43484;43.608;1.458;2024-02-23T09:20:03;98682.06;;;7.77;100.00
49723;BME280;43484;43.608;1.458;2024-02-23T09:22:29;98683.13;;;7.88;100.00
49723;BME280;43484;43.608;1.458;2024-02-23T09:24:56;98683.41;;;8.00;100.00
49723;BME280;43484;43.608;1.458;2024-02-23T09:27:23;98677.72;;;8.13;100.00
49723;BME280;43484;43.608;1.458;2024-02-23T09:29:50;98681.16;;;8.15;100.00
49723;BME280;43484;43.608;1.458;2024-02-23T09:32:17;98689.88;;;8.24;100.00
49723;BME280;43484;43.608;1.458;2024-02-23T09:34:43;98691.47;;;8.19;100.00
49723;BME280;43484;43.608;1.458;2024-02-23T09:37:10;98707.59;;;7.78;100.00
49723;BME280;43484;43.608;1.458;2024-02-23T09:39:37;98708.34;;;7.76;100.00
49723;BME280;43484;43.608;1.458;2024-02-23T09:42:08;98701.78;;;7.84;100.00
49723;BME280;43484;43.608;1.458;2024-02-23T09:44:36;98711.41;;;7.97;100.00
49723;BME280;43484;43.608;1.458;2024-02-23T09:47:04;98698.94;;;7.72;100.00
49723;BME280;43484;43.608;1.458;2024-02-23T09:49:37;98693.31;;;7.86;100.00
49723;BME280;43484;43.608;1.458;2024-02-23T09:52:07;98707.28;;;7.64;100.00
49723;BME280;43484;43.608;1.458;2024-02-23T09:54:35;98708.38;;;7.77;100.00
49723;BME280;43484;43.608;1.458;2024-02-23T09:57:06;98712.00;;;7.85;100.00
49723;BME280;43484;43.608;1.458;2024-02-23T09:59:34;98701.91;;;7.91;100.00
49723;BME280;43484;43.608;1.458;2024-02-23T10:02:07;98706.56;;;7.70;100.00
49723;BME280;43484;43.608;1.458;2024-02-23T10:04:35;98699.75;;;7.71;100.00
49723;BME280;43484;43.608;1.458;2024-02-23T10:07:02;98689.25;;;7.57;100.00
49723;BME280;43484;43.608;1.458;2024-02-23T10:09:31;98667.78;;;7.46;100.00
49723;BME280;43484;43.608;1.458;2024-02-23T10:11:58;98644.09;;;7.50;100.00
49723;BME280;43484;43.608;1.458;2024-02-23T10:14:25;98606.97;;;7.24;100.00
49723;BME280;43484;43.608;1.458;2024-02-23T10:16:52;98563.81;;;7.30;100.00
49723;BME280;43484;43.608;1.458;2024-02-23T10:19:21;98508.47;;;7.21;100.00
49723;BME280;43484;43.608;1.458;2024-02-23T10:21:48;98486.47;;;6.86;100.00
49723;BME280;43484;43.608;1.458;2024-02-23T10:24:17;98482.66;;;6.68;100.00
49723;BME280;43484;43.608;1.458;2024-02-23T10:26:44;98448.06;;;6.76;100.00
49723;BME280;43484;43.608;1.458;2024-02-23T10:29:11;98427.91;;;6.85;100.00
49723;BME280;43484;43.608;1.458;2024-02-23T10:31:42;98429.38;;;6.75;100.00
49723;BME280;43484;43.608;1.458;2024-02-23T10:34:12;98429.44;;;6.78;100.00
49723;BME280;43484;43.608;1.458;2024-02-23T10:36:41;98422.69;;;6.80;100.00
49723;BME280;43484;43.608;1.458;2024-02-23T10:39:17;98434.59;;;6.81;100.00
49723;BME280;43484;43.608;1.458;2024-02-23T10:41:47;98414.38;;;6.89;100.00
49723;BME280;43484;43.608;1.458;2024-02-23T10:44:19;98427.72;;;6.77;100.00
49723;BME280;43484;43.608;1.458;2024-02-23T10:46:46;98405.06;;;6.88;100.00
49723;BME280;43484;43.608;1.458;2024-02-23T10:49:14;98432.69;;;6.71;100.00
49723;BME280;43484;43.608;1.458;2024-02-23T10:51:42;98406.69;;;6.86;100.00
49723;BME280;43484;43.608;1.458;2024-02-23T10:54:12;98388.13;;;6.90;100.00
49723;BME280;43484;43.608;1.458;2024-02-23T10:56:39;98361.78;;;6.88;100.00
49723;BME280;43484;43.608;1.458;2024-02-23T10:59:08;98363.75;;;7.01;100.00
49723;BME280;43484;43.608;1.458;2024-02-23T11:01:36;98357.66;;;6.93;100.00
49723;BME280;43484;43.608;1.458;2024-02-23T11:04:04;98373.06;;;7.00;100.00
49723;BME280;43484;43.608;1.458;2024-02-23T11:06:33;98387.50;;;7.00;100.00
49723;BME280;43484;43.608;1.458;2024-02-23T11:09:07;98391.13;;;7.12;100.00
49723;BME280;43484;43.608;1.458;2024-02-23T11:11:36;98413.63;;;7.34;100.00
49723;BME280;43484;43.608;1.458;2024-02-23T11:14:07;98448.66;;;7.04;100.00
49723;BME280;43484;43.608;1.458;2024-02-23T11:16:39;98455.47;;;7.05;100.00
49723;BME280;43484;43.608;1.458;2024-02-23T11:19:09;98447.63;;;6.95;100.00
49723;BME280;43484;43.608;1.458;2024-02-23T11:21:38;98455.06;;;6.86;100.00
49723;BME280;43484;43.608;1.458;2024-02-23T11:24:06;98438.34;;;6.98;100.00
49723;BME280;43484;43.608;1.458;2024-02-23T11:26:32;98419.66;;;6.96;100.00
49723;BME280;43484;43.608;1.458;2024-02-23T11:29:11;98426.03;;;6.78;100.00
49723;BME280;43484;43.608;1.458;2024-02-23T11:31:44;98405.84;;;6.85;100.00
49723;BME280;43484;43.608;1.458;2024-02-23T11:34:12;98388.00;;;6.85;100.00
49723;BME280;43484;43.608;1.458;2024-02-23T11:36:39;98389.16;;;6.59;100.00
49723;BME280;43484;43.608;1.458;2024-02-23T11:39:06;98392.78;;;6.33;100.00
49723;BME280;43484;43.608;1.458;2024-02-23T11:41:33;98338.88;;;6.46;100.00
49723;BME280;43484;43.608;1.458;2024-02-23T11:44:00;98307.34;;;6.40;100.00
49723;BME280;43484;43.608;1.458;2024-02-23T11:46:27;98297.88;;;6.32;100.00
49723;BME280;43484;43.608;1.458;2024-02-23T11:48:53;98276.53;;;6.24;100.00
49723;BME280;43484;43.608;1.458;2024-02-23T11:51:22;98268.34;;;6.39;100.00
49723;BME280;43484;43.608;1.458;2024-02-23T11:53:50;98259.53;;;6.23;100.00
49723;BME280;43484;43.608;1.458;2024-02-23T11:56:18;98251.88;;;6.22;100.00
49723;BME280;43484;43.608;1.458;2024-02-23T11:58:46;98251.16;;;6.27;100.00
49723;BME280;43484;43.608;1.458;2024-02-23T12:01:14;98233.59;;;6.40;100.00
49723;BME280;43484;43.608;1.458;2024-02-23T12:03:41;98224.16;;;6.34;100.00
49723;BME280;43484;43.608;1.458;2024-02-23T12:06:10;98219.16;;;6.38;100.00
49723;BME280;43484;43.608;1.458;2024-02-23T12:08:37;98221.88;;;6.48;100.00
49723;BME280;43484;43.608;1.458;2024-02-23T12:11:05;98214.59;;;6.66;100.00
49723;BME280;43484;43.608;1.458;2024-02-23T12:13:35;98218.09;;;6.71;100.00
49723;BME280;43484;43.608;1.458;2024-02-23T12:16:02;98204.91;;;6.91;100.00
49723;BME280;43484;43.608;1.458;2024-02-23T12:18:29;98195.22;;;7.20;100.00
49723;BME280;43484;43.608;1.458;2024-02-23T12:21:08;98196.25;;;7.32;100.00
49723;BME280;43484;43.608;1.458;2024-02-23T12:23:43;98197.41;;;7.54;100.00
49723;BME280;43484;43.608;1.458;2024-02-23T12:26:12;98204.19;;;7.52;100.00
49723;BME280;43484;43.608;1.458;2024-02-23T12:28:41;98226.41;;;7.60;100.00
49723;BME280;43484;43.608;1.458;2024-02-23T12:31:07;98245.28;;;7.73;100.00
49723;BME280;43484;43.608;1.458;2024-02-23T12:33:35;98258.97;;;7.78;100.00
49723;BME280;43484;43.608;1.458;2024-02-23T12:36:04;98303.75;;;7.64;100.00
49723;BME280;43484;43.608;1.458;2024-02-23T12:38:31;98315.59;;;7.60;100.00
49723;BME280;43484;43.608;1.458;2024-02-23T12:41:02;98343.88;;;7.77;100.00
49723;BME280;43484;43.608;1.458;2024-02-23T12:43:29;98358.78;;;8.04;100.00
49723;BME280;43484;43.608;1.458;2024-02-23T12:45:57;98398.31;;;7.79;100.00
49723;BME280;43484;43.608;1.458;2024-02-23T12:48:24;98425.78;;;7.95;100.00
49723;BME280;43484;43.608;1.458;2024-02-23T12:50:51;98424.31;;;8.09;100.00
49723;BME280;43484;43.608;1.458;2024-02-23T12:53:37;98450.69;;;8.10;100.00
49723;BME280;43484;43.608;1.458;2024-02-23T12:56:13;98449.19;;;8.22;100.00
49723;BME280;43484;43.608;1.458;2024-02-23T12:58:42;98484.88;;;8.21;100.00
49723;BME280;43484;43.608;1.458;2024-02-23T13:01:09;98492.81;;;8.36;100.00
49723;BME280;43484;43.608;1.458;2024-02-23T13:03:38;98526.88;;;8.39;100.00
49723;BME280;43484;43.608;1.458;2024-02-23T13:06:05;98539.66;;;8.39;100.00
49723;BME280;43484;43.608;1.458;2024-02-23T13:08:32;98543.94;;;8.40;100.00
49723;BME280;43484;43.608;1.458;2024-02-23T13:10:59;98563.56;;;8.46;100.00
49723;BME280;43484;43.608;1.458;2024-02-23T13:13:26;98565.69;;;8.69;100.00
49723;BME280;43484;43.608;1.458;2024-02-23T13:15:53;98573.72;;;8.92;100.00
49723;BME280;43484;43.608;1.458;2024-02-23T13:18:20;98610.31;;;8.93;100.00
49723;BME280;43484;43.608;1.458;2024-02-23T13:20:47;98594.22;;;8.97;100.00
49723;BME280;43484;43.608;1.458;2024-02-23T13:23:13;98612.03;;;8.92;100.00
49723;BME280;43484;43.608;1.458;2024-02-23T13:25:44;98617.00;;;8.86;100.00
49723;BME280;43484;43.608;1.458;2024-02-23T13:28:10;98617.88;;;8.85;100.00
49723;BME280;43484;43.608;1.458;2024-02-23T13:30:37;98621.31;;;8.88;100.00
49723;BME280;43484;43.608;1.458;2024-02-23T13:33:05;98615.56;;;9.00;100.00
49723;BME280;43484;43.608;1.458;2024-02-23T13:35:33;98614.72;;;9.03;100.00
49723;BME280;43484;43.608;1.458;2024-02-23T13:38:00;98623.84;;;8.85;100.00
49723;BME280;43484;43.608;1.458;2024-02-23T13:40:30;98612.69;;;8.80;100.00
49723;BME280;43484;43.608;1.458;2024-02-23T13:42:58;98605.19;;;8.91;100.00
49723;BME280;43484;43.608;1.458;2024-02-23T13:45:24;98604.44;;;8.97;100.00
49723;BME280;43484;43.608;1.458;2024-02-23T13:48:00;98605.16;;;8.89;100.00
49723;BME280;43484;43.608;1.458;2024-02-23T13:50:27;98597.78;;;9.08;100.00
49723;BME280;43484;43.608;1.458;2024-02-23T13:52:54;98592.50;;;8.96;100.00
49723;BME280;43484;43.608;1.458;2024-02-23T13:55:22;98596.38;;;9.28;100.00
49723;BME280;43484;43.608;1.458;2024-02-23T13:57:49;98612.34;;;9.13;100.00
49723;BME280;43484;43.608;1.458;2024-02-23T14:00:17;98598.59;;;9.05;100.00
49723;BME280;43484;43.608;1.458;2024-02-23T14:02:44;98595.19;;;9.06;100.00
49723;BME280;43484;43.608;1.458;2024-02-23T14:05:12;98599.28;;;8.94;100.00
49723;BME280;43484;43.608;1.458;2024-02-23T14:07:39;98590.72;;;8.92;100.00